createdAt,value
2023-02-24T00:02:01.307Z,8.20
2023-02-24T00:04:34.122Z,8.20
2023-02-24T00:07:01.355Z,8.30
2023-02-24T00:09:30.144Z,8.20
2023-02-24T00:11:57.249Z,8.20
2023-02-24T00:14:26.846Z,8.10
2023-02-24T00:16:54.449Z,7.90
2023-02-24T00:19:24.969Z,8.00
2023-02-24T00:21:54.353Z,8.00
2023-02-24T00:24:22.616Z,8.10
2023-02-24T00:26:56.924Z,8.10
2023-02-24T00:29:24.588Z,8.10
2023-02-24T00:32:00.167Z,8.00
2023-02-24T00:34:31.339Z,8.10
2023-02-24T00:36:58.622Z,8.10
2023-02-24T00:39:30.350Z,8.00
2023-02-24T00:42:06.925Z,8.00
2023-02-24T00:44:45.924Z,8.00
2023-02-24T00:47:18.591Z,8.00
2023-02-24T00:49:45.970Z,8.10
2023-02-24T00:52:19.357Z,8.10
2023-02-24T00:54:48.378Z,8.10
2023-02-24T00:57:17.873Z,8.10
2023-02-24T00:59:47.653Z,8.10
2023-02-24T01:02:15.731Z,8.10
2023-02-24T01:04:44.761Z,8.10
2023-02-24T01:07:14.093Z,7.90
2023-02-24T01:09:42.013Z,7.90
2023-02-24T01:12:29.396Z,8.00
2023-02-24T01:14:56.869Z,8.00
2023-02-24T01:17:23.971Z,7.90
2023-02-24T01:19:51.954Z,8.00
2023-02-24T01:22:20.916Z,7.80
2023-02-24T01:24:49.154Z,7.80
2023-02-24T01:27:18.944Z,7.90
2023-02-24T01:29:47.717Z,7.90
2023-02-24T01:32:20.935Z,7.90
2023-02-24T01:34:51.479Z,7.80
2023-02-24T01:37:19.496Z,7.70
2023-02-24T01:39:47.851Z,7.80
2023-02-24T01:42:21.922Z,7.80
2023-02-24T01:44:49.071Z,7.70
2023-02-24T01:47:20.864Z,7.70
2023-02-24T01:49:53.071Z,7.60
2023-02-24T01:52:36.485Z,7.70
2023-02-24T01:55:11.097Z,7.70
2023-02-24T01:57:39.729Z,7.80
2023-02-24T02:00:21.136Z,7.80
2023-02-24T02:02:53.391Z,7.60
2023-02-24T02:05:21.304Z,7.60
2023-02-24T02:07:50.198Z,7.60
2023-02-24T02:10:18.632Z,7.70
2023-02-24T02:12:46.701Z,7.70
2023-02-24T02:15:16.850Z,7.60
2023-02-24T02:17:46.753Z,7.60
2023-02-24T02:20:48.870Z,7.60
2023-02-24T02:23:28.694Z,7.60
2023-02-24T02:26:18.893Z,7.50
2023-02-24T02:29:04.679Z,7.50
2023-02-24T02:31:56.381Z,7.50
2023-02-24T02:34:35.963Z,7.40
2023-02-24T02:37:22.398Z,7.50
2023-02-24T02:39:52.850Z,7.50
2023-02-24T02:42:28.696Z,7.50
2023-02-24T02:44:56.129Z,7.50
2023-02-24T02:47:44.269Z,7.60
2023-02-24T02:50:20.218Z,7.50
2023-02-24T02:53:19.535Z,7.40
2023-02-24T02:55:53.624Z,7.50
2023-02-24T02:58:27.471Z,7.50
2023-02-24T03:01:03.464Z,7.50
2023-02-24T03:03:34.375Z,7.40
2023-02-24T03:06:22.235Z,7.50
2023-02-24T03:08:56.808Z,7.60
2023-02-24T03:11:24.978Z,7.50
2023-02-24T03:13:56.197Z,7.60
2023-02-24T03:16:26.629Z,7.60
2023-02-24T03:19:03.867Z,7.60
2023-02-24T03:21:37.019Z,7.60
2023-02-24T03:24:06.487Z,7.50
2023-02-24T03:27:06.399Z,7.40
2023-02-24T03:29:50.604Z,7.40
2023-02-24T03:32:23.372Z,7.40
2023-02-24T03:35:15.169Z,7.40
2023-02-24T03:37:44.020Z,7.30
2023-02-24T03:40:14.937Z,7.40
2023-02-24T03:42:48.592Z,7.40
2023-02-24T03:45:17.293Z,7.50
2023-02-24T03:47:47.466Z,7.30
2023-02-24T03:50:20.062Z,7.40
2023-02-24T03:53:13.482Z,7.40
2023-02-24T03:56:01.940Z,7.50
2023-02-24T03:58:56.836Z,7.50
2023-02-24T04:01:58.173Z,7.60
2023-02-24T04:04:46.341Z,7.70
2023-02-24T04:07:40.114Z,7.70
2023-02-24T04:10:29.696Z,7.70
2023-02-24T04:13:20.724Z,7.70
2023-02-24T04:15:58.974Z,7.50
2023-02-24T04:18:30.999Z,7.50
2023-02-24T04:21:01.276Z,7.40
2023-02-24T04:23:38.785Z,7.30
2023-02-24T04:26:07.946Z,7.40
2023-02-24T04:28:35.805Z,7.30
2023-02-24T04:31:10.288Z,7.20
2023-02-24T04:33:39.415Z,7.20
2023-02-24T04:36:09.107Z,7.20
2023-02-24T04:38:39.778Z,7.20
2023-02-24T04:41:07.023Z,7.10
2023-02-24T04:43:33.975Z,7.20
2023-02-24T04:53:49.907Z,7.10
2023-02-24T04:56:18.840Z,7.10
2023-02-24T04:58:46.572Z,7.10
2023-02-24T05:01:15.025Z,7.10
2023-02-24T05:03:42.628Z,7.10
2023-02-24T05:06:16.224Z,7.30
2023-02-24T05:08:44.113Z,7.30
2023-02-24T05:11:19.685Z,7.30
2023-02-24T05:13:47.362Z,7.30
2023-02-24T05:16:17.591Z,7.30
2023-02-24T05:18:45.060Z,7.30
2023-02-24T05:21:35.724Z,7.30
2023-02-24T05:24:11.726Z,7.20
2023-02-24T05:26:42.041Z,7.20
2023-02-24T05:29:11.393Z,7.00
2023-02-24T05:31:38.928Z,7.00
2023-02-24T05:34:08.567Z,7.00
2023-02-24T05:36:40.670Z,7.20
2023-02-24T05:39:12.184Z,7.20
2023-02-24T05:41:42.336Z,7.20
2023-02-24T05:44:14.361Z,7.10
2023-02-24T05:46:44.824Z,7.10
2023-02-24T05:49:23.626Z,7.20
2023-02-24T05:51:55.780Z,7.10
2023-02-24T05:54:32.157Z,7.10
2023-02-24T05:57:06.838Z,7.10
2023-02-24T05:59:34.271Z,7.10
2023-02-24T06:02:09.497Z,7.10
2023-02-24T06:04:39.708Z,7.10
2023-02-24T06:07:13.887Z,7.10
2023-02-24T06:09:43.157Z,7.20
2023-02-24T06:12:11.638Z,7.20
2023-02-24T06:14:39.021Z,7.10
2023-02-24T06:17:06.395Z,7.10
2023-02-24T06:19:33.880Z,7.10
2023-02-24T06:22:02.328Z,7.10
2023-02-24T06:24:32.140Z,7.20
2023-02-24T06:27:06.135Z,7.20
2023-02-24T06:29:33.490Z,7.20
2023-02-24T06:32:08.823Z,7.20
2023-02-24T06:34:37.415Z,7.20
2023-02-24T06:37:07.323Z,7.10
2023-02-24T06:39:37.644Z,7.10
2023-02-24T06:42:05.952Z,7.20
2023-02-24T06:44:34.783Z,7.20
2023-02-24T06:47:03.069Z,7.20
2023-02-24T06:49:34.180Z,7.20
2023-02-24T06:52:01.950Z,7.10
2023-02-24T06:54:30.748Z,7.20
2023-02-24T06:57:01.050Z,7.20
2023-02-24T06:59:32.673Z,7.20
2023-02-24T07:02:02.236Z,7.20
2023-02-24T07:04:30.450Z,7.10
2023-02-24T07:07:04.012Z,7.20
2023-02-24T07:09:33.206Z,7.20
2023-02-24T07:12:03.083Z,7.10
2023-02-24T07:14:31.870Z,7.10
2023-02-24T07:17:00.412Z,7.10
2023-02-24T07:19:29.953Z,7.20
2023-02-24T07:22:03.848Z,7.10
2023-02-24T07:24:39.977Z,7.10
2023-02-24T07:27:11.087Z,7.00
2023-02-24T07:29:39.383Z,7.20
2023-02-24T07:32:09.544Z,7.20
2023-02-24T07:34:40.509Z,7.20
2023-02-24T07:37:09.485Z,7.30
2023-02-24T07:39:39.806Z,7.10
2023-02-24T07:42:09.600Z,7.20
2023-02-24T07:44:46.709Z,7.20
2023-02-24T07:47:16.258Z,7.10
2023-02-24T07:49:43.990Z,7.00
2023-02-24T07:52:11.863Z,7.10
2023-02-24T07:54:39.622Z,7.10
2023-02-24T07:57:14.290Z,7.10
2023-02-24T07:59:45.401Z,7.20
2023-02-24T08:02:14.040Z,7.20
2023-02-24T08:04:44.584Z,7.10
2023-02-24T08:07:14.686Z,7.30
2023-02-24T08:09:46.818Z,7.30
2023-02-24T08:12:18.357Z,7.20
2023-02-24T08:14:51.267Z,7.10
2023-02-24T08:17:24.237Z,7.10
2023-02-24T08:20:12.790Z,7.20
2023-02-24T08:22:47.135Z,7.30
2023-02-24T08:25:18.829Z,7.30
2023-02-24T08:28:07.501Z,7.30
2023-02-24T08:30:40.885Z,7.20
2023-02-24T08:33:17.564Z,7.30
2023-02-24T08:35:45.370Z,7.30
2023-02-24T08:38:19.887Z,7.20
2023-02-24T08:40:50.652Z,7.30
2023-02-24T08:43:33.295Z,7.30
2023-02-24T08:46:18.792Z,7.20
2023-02-24T08:48:55.840Z,7.20
2023-02-24T08:51:35.608Z,7.20
2023-02-24T08:54:15.582Z,7.20
2023-02-24T08:56:49.267Z,7.30
2023-02-24T08:59:29.577Z,7.20
2023-02-24T09:02:17.563Z,7.30
2023-02-24T09:04:47.043Z,7.30
2023-02-24T09:07:21.056Z,7.20
2023-02-24T09:09:49.318Z,7.20
2023-02-24T09:12:25.030Z,7.20
2023-02-24T09:15:01.462Z,7.30
2023-02-24T09:17:45.956Z,7.30
2023-02-24T09:20:33.866Z,7.30
2023-02-24T09:23:03.704Z,7.30
2023-02-24T09:25:41.838Z,7.30
2023-02-24T09:28:17.538Z,7.30
2023-02-24T09:30:56.447Z,7.40
2023-02-24T09:33:23.909Z,7.30
2023-02-24T09:36:20.506Z,7.30
2023-02-24T09:38:59.820Z,7.30
2023-02-24T09:42:02.228Z,7.30
2023-02-24T09:44:36.592Z,7.30
2023-02-24T09:47:40.698Z,7.30
2023-02-24T09:50:46.779Z,7.30
2023-02-24T09:53:17.700Z,7.30
2023-02-24T09:56:05.845Z,7.50
2023-02-24T09:58:58.786Z,7.50
2023-02-24T10:01:51.090Z,7.60
2023-02-24T10:04:36.270Z,7.50
2023-02-24T10:07:15.257Z,7.50
2023-02-24T10:09:46.749Z,7.50
2023-02-24T10:12:24.191Z,7.50
2023-02-24T10:15:32.442Z,7.60
2023-02-24T10:18:13.936Z,7.70
2023-02-24T10:20:45.868Z,7.70
2023-02-24T10:23:33.122Z,7.70
2023-02-24T10:26:09.894Z,7.60
2023-02-24T10:28:52.195Z,7.70
2023-02-24T10:31:39.486Z,7.80
2023-02-24T10:34:12.887Z,7.80
2023-02-24T10:36:41.971Z,7.90
2023-02-24T10:39:20.989Z,7.80
2023-02-24T10:42:19.836Z,7.80
2023-02-24T10:45:01.414Z,7.90
2023-02-24T10:47:31.430Z,8.00
2023-02-24T10:50:04.471Z,7.70
2023-02-24T10:52:37.701Z,7.80
2023-02-24T10:55:28.349Z,7.90
2023-02-24T10:58:15.990Z,8.10
2023-02-24T11:01:13.416Z,8.30
2023-02-24T11:04:01.273Z,8.40
2023-02-24T11:06:41.918Z,8.20
2023-02-24T11:09:19.798Z,8.30
2023-02-24T11:12:06.598Z,8.30
2023-02-24T11:15:14.284Z,8.40
2023-02-24T11:17:47.999Z,8.40
2023-02-24T11:20:24.465Z,8.40
2023-02-24T11:22:56.005Z,8.80
2023-02-24T11:25:39.798Z,9.00
2023-02-24T11:28:27.460Z,9.40
2023-02-24T11:31:16.272Z,9.80
2023-02-24T11:34:11.694Z,10.10
2023-02-24T11:37:09.318Z,10.00
2023-02-24T11:39:53.547Z,10.00
2023-02-24T11:42:46.796Z,9.90
2023-02-24T11:45:25.862Z,9.60
2023-02-24T11:48:05.314Z,9.70
2023-02-24T11:50:46.170Z,9.60
2023-02-24T11:53:34.990Z,9.40
2023-02-24T11:56:29.414Z,9.10
2023-02-24T11:59:18.134Z,9.00
2023-02-24T12:02:14.481Z,8.90
2023-02-24T12:04:51.215Z,9.00
2023-02-24T12:07:37.685Z,8.90
2023-02-24T12:10:18.179Z,9.00
2023-02-24T12:13:11.932Z,8.90
2023-02-24T12:15:46.880Z,8.90
2023-02-24T12:18:22.211Z,8.90
2023-02-24T12:21:01.147Z,8.90
2023-02-24T12:23:44.327Z,8.90
2023-02-24T12:26:20.568Z,8.80
2023-02-24T12:28:58.617Z,8.90
2023-02-24T12:31:45.936Z,8.90
2023-02-24T12:34:51.387Z,8.90
2023-02-24T12:37:40.087Z,8.80
2023-02-24T12:40:28.881Z,8.80
2023-02-24T12:43:25.536Z,8.80
2023-02-24T12:46:04.876Z,9.00
2023-02-24T12:48:40.594Z,8.90
2023-02-24T12:51:16.975Z,9.00
2023-02-24T12:54:05.204Z,8.90
2023-02-24T12:56:58.266Z,8.80
2023-02-24T12:59:33.735Z,8.80
2023-02-24T13:02:03.882Z,8.90
2023-02-24T13:04:33.944Z,8.90
2023-02-24T13:07:10.093Z,8.90
2023-02-24T13:09:47.031Z,8.90
2023-02-24T13:12:47.517Z,8.80
2023-02-24T13:15:25.459Z,8.80
2023-02-24T13:17:58.056Z,8.80
2023-02-24T13:20:38.001Z,8.80
2023-02-24T13:23:20.950Z,8.70
2023-02-24T13:25:53.417Z,8.90
2023-02-24T13:28:31.362Z,8.80
2023-02-24T13:31:02.924Z,8.60
2023-02-24T13:33:36.105Z,8.60
2023-02-24T13:36:09.347Z,8.60
2023-02-24T13:38:40.157Z,8.70
2023-02-24T13:41:27.074Z,8.80
2023-02-24T13:44:03.579Z,8.70
2023-02-24T13:46:56.178Z,8.60
2023-02-24T13:50:11.780Z,8.70
2023-02-24T13:52:54.193Z,8.70
2023-02-24T13:55:54.910Z,8.70
2023-02-24T13:59:05.261Z,8.70
2023-02-24T14:01:47.153Z,8.70
2023-02-24T14:04:19.645Z,8.80
2023-02-24T14:07:02.783Z,8.70
2023-02-24T14:09:37.312Z,8.70
2023-02-24T14:12:39.871Z,8.70
2023-02-24T14:15:16.077Z,8.70
2023-02-24T14:17:43.497Z,8.70
2023-02-24T14:20:15.886Z,8.70
2023-02-24T14:22:49.094Z,8.80
2023-02-24T14:25:18.232Z,8.90
2023-02-24T14:27:49.786Z,9.00
2023-02-24T14:30:37.415Z,9.00
2023-02-24T14:33:07.347Z,8.90
2023-02-24T14:35:42.722Z,8.90
2023-02-24T14:38:36.561Z,8.90
2023-02-24T14:41:07.982Z,8.80
2023-02-24T14:43:42.295Z,8.90
2023-02-24T14:46:09.841Z,8.80
2023-02-24T14:48:37.474Z,8.80
2023-02-24T14:51:23.959Z,8.80
2023-02-24T14:53:55.502Z,8.70
2023-02-24T14:56:28.215Z,8.70
2023-02-24T14:59:08.544Z,8.70
2023-02-24T15:01:45.147Z,8.60
2023-02-24T15:04:30.856Z,8.60
2023-02-24T15:06:58.622Z,8.60
2023-02-24T15:09:33.358Z,8.60
2023-02-24T15:12:10.566Z,8.60
2023-02-24T15:14:38.394Z,8.50
2023-02-24T15:17:17.790Z,8.50
2023-02-24T15:19:54.465Z,8.50
2023-02-24T15:22:30.753Z,8.40
2023-02-24T15:25:16.514Z,8.40
2023-02-24T15:28:00.232Z,8.40
2023-02-24T15:30:36.979Z,8.40
2023-02-24T15:33:08.509Z,8.40
2023-02-24T15:35:39.434Z,8.30
2023-02-24T15:38:07.043Z,8.30
2023-02-24T15:40:34.513Z,8.20
2023-02-24T15:43:10.742Z,8.30
2023-02-24T15:45:39.920Z,8.30
2023-02-24T15:48:22.548Z,8.20
2023-02-24T15:50:50.685Z,8.20
2023-02-24T15:53:18.248Z,8.10
2023-02-24T15:55:45.682Z,8.00
2023-02-24T15:58:19.066Z,8.00
2023-02-24T16:00:46.734Z,7.90
2023-02-24T16:03:14.194Z,8.00
2023-02-24T16:05:41.544Z,8.00
2023-02-24T16:08:13.888Z,8.00
2023-02-24T16:10:41.559Z,8.00
2023-02-24T16:13:21.647Z,8.00
2023-02-24T16:15:49.891Z,7.90
2023-02-24T16:18:23.287Z,7.90
2023-02-24T16:20:55.523Z,8.00
2023-02-24T16:23:25.961Z,8.30
2023-02-24T16:25:58.157Z,8.10
2023-02-24T16:28:26.945Z,8.10
2023-02-24T16:30:54.588Z,8.00
2023-02-24T16:33:23.878Z,7.90
2023-02-24T16:35:55.525Z,8.00
2023-02-24T16:38:26.941Z,7.80
2023-02-24T16:40:55.536Z,7.90
2023-02-24T16:43:22.911Z,7.90
2023-02-24T16:46:04.209Z,7.80
2023-02-24T16:48:37.442Z,7.80
2023-02-24T16:51:08.076Z,8.10
2023-02-24T16:53:35.652Z,8.20
2023-02-24T16:56:04.866Z,8.10
2023-02-24T16:58:32.538Z,7.80
2023-02-24T17:01:02.993Z,7.80
2023-02-24T17:03:41.565Z,7.70
2023-02-24T17:06:09.462Z,7.60
2023-02-24T17:08:36.964Z,7.70
2023-02-24T17:11:04.881Z,7.80
2023-02-24T17:13:32.231Z,7.70
2023-02-24T17:15:59.818Z,7.70
2023-02-24T17:18:27.487Z,7.80
2023-02-24T17:20:55.022Z,7.70
2023-02-24T17:23:22.817Z,7.70
2023-02-24T17:25:57.008Z,7.70
2023-02-24T17:28:25.005Z,7.60
2023-02-24T17:30:52.640Z,7.80
2023-02-24T17:33:20.376Z,7.70
2023-02-24T17:35:48.681Z,7.60
2023-02-24T17:38:18.566Z,7.70
2023-02-24T17:40:47.058Z,7.80
2023-02-24T17:43:14.886Z,7.60
2023-02-24T17:45:45.173Z,7.60
2023-02-24T17:48:14.187Z,7.60
2023-02-24T17:50:42.530Z,7.40
2023-02-24T17:53:10.281Z,7.50
2023-02-24T17:55:37.896Z,7.30
2023-02-24T17:58:05.372Z,7.30
2023-02-24T18:00:32.836Z,7.20
2023-02-24T18:03:02.958Z,7.30
2023-02-24T18:05:30.702Z,7.20
2023-02-24T18:07:58.942Z,7.20
2023-02-24T18:10:27.437Z,7.20
2023-02-24T18:12:54.824Z,7.30
2023-02-24T18:15:22.447Z,7.20
2023-02-24T18:17:49.872Z,7.10
2023-02-24T18:20:17.289Z,7.10
2023-02-24T18:22:44.696Z,7.10
2023-02-24T18:25:12.169Z,7.20
2023-02-24T18:27:39.591Z,7.20
2023-02-24T18:30:10.264Z,7.10
2023-02-24T18:32:44.700Z,7.00
2023-02-24T18:35:13.445Z,7.30
2023-02-24T18:37:40.776Z,7.10
2023-02-24T18:40:09.108Z,7.00
2023-02-24T18:42:36.549Z,7.10
2023-02-24T18:45:04.133Z,7.00
2023-02-24T18:47:31.475Z,7.10
2023-02-24T18:49:58.876Z,7.00
2023-02-24T18:52:26.221Z,6.80
2023-02-24T18:54:53.630Z,6.80
2023-02-24T18:57:21.056Z,6.90
2023-02-24T18:59:51.658Z,6.90
2023-02-24T19:02:19.112Z,7.00
2023-02-24T19:04:46.647Z,6.80
2023-02-24T19:07:14.193Z,6.80
2023-02-24T19:09:42.871Z,6.80
2023-02-24T19:12:10.277Z,6.80
2023-02-24T19:14:37.738Z,6.80
2023-02-24T19:17:05.139Z,7.00
2023-02-24T19:19:32.623Z,7.00
2023-02-24T19:22:00.408Z,6.80
2023-02-24T19:24:28.222Z,6.90
2023-02-24T19:26:55.582Z,7.00
2023-02-24T19:29:22.969Z,6.90
2023-02-24T19:31:54.995Z,6.60
2023-02-24T19:34:22.830Z,6.60
2023-02-24T19:36:50.203Z,6.50
2023-02-24T19:39:18.299Z,6.50
2023-02-24T19:41:47.981Z,6.60
2023-02-24T19:44:16.635Z,6.40
2023-02-24T19:46:44.066Z,6.30
2023-02-24T19:49:11.442Z,6.40
2023-02-24T19:51:38.923Z,6.50
2023-02-24T19:54:06.552Z,6.40
2023-02-24T19:56:36.644Z,6.10
2023-02-24T19:59:06.210Z,5.90
2023-02-24T20:01:34.132Z,5.50
2023-02-24T20:04:03.242Z,5.30
2023-02-24T20:06:41.461Z,5.30
2023-02-24T20:09:11.967Z,5.20
2023-02-24T20:11:43.521Z,5.00
2023-02-24T20:14:12.210Z,5.20
2023-02-24T20:16:41.481Z,4.80
2023-02-24T20:19:11.664Z,4.70
2023-02-24T20:21:42.056Z,4.60
2023-02-24T20:24:13.908Z,4.70
2023-02-24T20:26:43.437Z,4.70
2023-02-24T20:29:11.587Z,4.60
2023-02-24T20:31:39.802Z,4.70
2023-02-24T20:34:10.819Z,4.70
2023-02-24T20:36:38.303Z,4.90
2023-02-24T20:39:06.974Z,5.00
2023-02-24T20:41:34.544Z,4.70
2023-02-24T20:44:01.987Z,4.70
2023-02-24T20:46:31.963Z,4.40
2023-02-24T20:49:01.903Z,4.50
2023-02-24T20:51:31.339Z,4.30
2023-02-24T20:53:59.636Z,4.20
2023-02-24T20:56:29.499Z,4.40
2023-02-24T20:59:02.580Z,4.40
2023-02-24T21:01:31.143Z,4.50
2023-02-24T21:03:59.055Z,4.30
2023-02-24T21:06:27.830Z,4.30
2023-02-24T21:08:56.051Z,4.10
2023-02-24T21:11:24.348Z,4.00
2023-02-24T21:13:52.556Z,4.00
2023-02-24T21:16:21.902Z,4.10
2023-02-24T21:18:50.884Z,4.20
2023-02-24T21:21:19.720Z,4.00
2023-02-24T21:23:47.975Z,4.00
2023-02-24T21:26:15.632Z,3.90
2023-02-24T21:28:43.288Z,3.90
2023-02-24T21:31:17.474Z,3.70
2023-02-24T21:33:44.975Z,3.70
2023-02-24T21:36:14.600Z,3.70
2023-02-24T21:38:42.263Z,3.80
2023-02-24T21:41:14.943Z,3.90
2023-02-24T21:43:45.190Z,3.90
2023-02-24T21:46:13.954Z,4.00
2023-02-24T21:48:42.121Z,3.60
2023-02-24T21:51:12.818Z,3.70
2023-02-24T21:53:43.969Z,3.90
2023-02-24T21:56:17.085Z,3.60
2023-02-24T21:59:09.210Z,3.50
2023-02-24T22:01:41.973Z,3.80
2023-02-24T22:04:13.618Z,3.60
2023-02-24T22:06:42.686Z,3.40
2023-02-24T22:09:11.474Z,3.50
2023-02-24T22:11:41.236Z,3.50
2023-02-24T22:14:13.364Z,3.20
2023-02-24T22:16:41.937Z,3.50
2023-02-24T22:19:10.230Z,3.70
2023-02-24T22:21:39.459Z,3.70
2023-02-24T22:24:07.114Z,3.50
2023-02-24T22:26:34.531Z,3.50
2023-02-24T22:29:02.504Z,3.40
2023-02-24T22:31:32.084Z,3.20
2023-02-24T22:34:00.499Z,3.70
2023-02-24T22:36:34.070Z,3.30
2023-02-24T22:39:02.126Z,3.60
2023-02-24T22:41:32.532Z,3.30
2023-02-24T22:44:00.711Z,3.30
2023-02-24T22:46:31.257Z,3.30
2023-02-24T22:48:59.670Z,3.80
2023-02-24T22:51:27.628Z,3.40
2023-02-24T22:53:56.460Z,3.10
2023-02-24T22:56:27.582Z,3.40
2023-02-24T22:58:55.536Z,3.30
2023-02-24T23:01:26.010Z,3.40
2023-02-24T23:03:54.012Z,3.10
2023-02-24T23:06:28.041Z,3.10
2023-02-24T23:08:57.335Z,3.20
2023-02-24T23:11:30.821Z,3.40
2023-02-24T23:14:00.927Z,3.40
2023-02-24T23:16:31.998Z,3.10
2023-02-24T23:19:01.915Z,3.60
2023-02-24T23:21:38.060Z,3.40
2023-02-24T23:24:07.392Z,3.40
2023-02-24T23:26:38.442Z,3.60
2023-02-24T23:29:06.439Z,3.50
2023-02-24T23:31:34.077Z,3.30
2023-02-24T23:34:03.995Z,3.10
2023-02-24T23:36:31.400Z,3.30
2023-02-24T23:38:58.735Z,3.30
2023-02-24T23:41:26.149Z,3.20
2023-02-24T23:43:53.654Z,3.50
2023-02-24T23:46:21.753Z,3.20
2023-02-24T23:48:53.857Z,3.20
2023-02-24T23:51:21.598Z,3.20
2023-02-24T23:53:49.871Z,3.20
2023-02-24T23:56:20.545Z,3.20
2023-02-24T23:58:53.328Z,3.40
